Airfield :
LOGIN :

Register | Disclaimer

   EN    FR    IT 

 










Legend :    VFR   Marginal VFR   IFR   Intensive IFR   Very Intensive IFR
Visi :
Ceiling :
>= 8 km
>= 3000ft
5 to 8 km
1000 to 3000 ft
1500m to 5 km
500 to 1000 ft
800 to 1500m
200 to 500 ft
< 800m
< 200 ft
Symbols :   Thunderstorms  Fog  Heavy snow  Heavy precipitations  Wind > 20 kt
SIGMETs :     Misc.  Thunderstorms  Icing  Turbulence  Mountain Waves  Volcanic Ashes






- Airport Elevation : 636 ft


LPBJ - Beja Air Base

CURRENT METAR :
  • 161300Z 23017G27KT 190V270 4000 1500W -SHRA BR SCT014 BKN018 SCT020CB 13/12 Q0995

EXPIRED METARs :
  • 161237Z 19021KT 9999 SCT014 BKN018 FEW020CB 15/12 Q0995
  • 161200Z /////KT 9999 FEW011 BKN014 BKN020 15/13 Q0996
  • 161100Z 16011KT 9999 FEW012 BKN020 13/13 Q0997

TAF TAF LPBJ
Valid from the 16 at 12:00 until the 17 at 12:00 UTC


161103Z 1612/1712 18015KT 9999 SCT014 BKN020
TEMPO 1612/1615 19018G28KT 4000 -RADZ SCT008 BKN012
PROB40
TEMPO 1612/1615 1200 TSRA BKN006 SCT018CB
BECMG 1615/1617 28010KT SCT018 SCT025
TEMPO 1615/1624 3000 SHRA BKN012 FEW020CB
BECMG 1701/1703 34010KT FEW030



MET'MAP, your aeronautical weather chart ! - Copyright ORBIFLY December 2007 - Disclaimer

ORBIFLY MET'MAP TEAM :

Programming & Development : Alexandra Zaïnal
Concept & original design : Baudouin d'Aumeries
Assistance for programming : Marc-Olivier Méhu
Technical & hardware support : Manuel Goepfert

Contact : metmap@orbifly.com




SOURCES & CREDITS :

   NOAA